Erin, Wisconsin
Current Conditions -  °F | °C
As of 3:15 AM on Thursday 23 Oct 2014 (Local Time) from KRNH Reporting Station
Overcast Overcast  
Wind Chill: 46°   Ceiling: 2000
Heat Index: 50°   Visibility: 10mi
Dew Point: 42°   Wind: 9mph
Humidity: 76%   Direction: 160°SSE
Pressure: 30.02"   Gusts: NA
Location:  45.1804°N, 92.551°W
Report Text: KRNH 230815Z AUTO 16008KT 10SM BKN020 BKN033 OVC070 10/06 A3002 RMK AO2 T00990058
Loading
Personal Weather Stations






























Interactive Weather Map
Tropical Storm Tracking
New forecast layout! Learn more

10-Day Weather Forecast

Advertisements
Track Severe Weather on mobile